sensor_id;sensor_type;location;lat;lon;timestamp;pressure;altitude;pressure_sealevel;temperature;humidity
9717;BME280;4897;43.570;27.832;2024-01-30T00:02:21;101254.63;;;1.81;100.00
9717;BME280;4897;43.570;27.832;2024-01-30T00:04:48;101250.28;;;1.77;100.00
9717;BME280;4897;43.570;27.832;2024-01-30T00:07:18;101249.47;;;1.72;100.00
9717;BME280;4897;43.570;27.832;2024-01-30T00:09:46;101226.81;;;1.60;100.00
9717;BME280;4897;43.570;27.832;2024-01-30T00:12:13;101230.28;;;1.64;100.00
9717;BME280;4897;43.570;27.832;2024-01-30T00:14:41;101241.56;;;1.72;100.00
9717;BME280;4897;43.570;27.832;2024-01-30T00:17:09;101262.53;;;1.81;100.00
9717;BME280;4897;43.570;27.832;2024-01-30T00:19:36;101251.19;;;1.75;100.00
9717;BME280;4897;43.570;27.832;2024-01-30T00:22:03;101235.59;;;1.59;100.00
9717;BME280;4897;43.570;27.832;2024-01-30T00:24:32;101246.16;;;1.59;100.00
9717;BME280;4897;43.570;27.832;2024-01-30T00:26:59;101246.97;;;1.63;100.00
9717;BME280;4897;43.570;27.832;2024-01-30T00:29:28;101226.09;;;1.49;100.00
9717;BME280;4897;43.570;27.832;2024-01-30T00:31:59;101254.03;;;1.61;100.00
9717;BME280;4897;43.570;27.832;2024-01-30T00:34:26;101240.84;;;1.63;100.00
9717;BME280;4897;43.570;27.832;2024-01-30T00:36:53;101226.13;;;1.48;100.00
9717;BME280;4897;43.570;27.832;2024-01-30T00:39:20;101182.59;;;1.23;100.00
9717;BME280;4897;43.570;27.832;2024-01-30T00:41:48;101222.59;;;1.49;100.00
9717;BME280;4897;43.570;27.832;2024-01-30T00:44:15;101241.75;;;1.60;100.00
9717;BME280;4897;43.570;27.832;2024-01-30T00:46:42;101223.41;;;1.54;100.00
9717;BME280;4897;43.570;27.832;2024-01-30T00:49:11;101242.56;;;1.63;100.00
9717;BME280;4897;43.570;27.832;2024-01-30T00:51:41;101239.91;;;1.67;100.00
9717;BME280;4897;43.570;27.832;2024-01-30T00:54:08;101241.69;;;1.63;100.00
9717;BME280;4897;43.570;27.832;2024-01-30T00:56:35;101228.75;;;1.49;100.00
9717;BME280;4897;43.570;27.832;2024-01-30T00:59:03;101237.38;;;1.60;100.00
9717;BME280;4897;43.570;27.832;2024-01-30T01:01:30;101227.72;;;1.58;100.00
9717;BME280;4897;43.570;27.832;2024-01-30T01:03:57;101143.16;;;1.17;100.00
9717;BME280;4897;43.570;27.832;2024-01-30T01:06:24;101181.38;;;1.42;100.00
9717;BME280;4897;43.570;27.832;2024-01-30T01:08:51;101234.72;;;1.59;100.00
9717;BME280;4897;43.570;27.832;2024-01-30T01:11:18;101240.66;;;1.75;100.00
9717;BME280;4897;43.570;27.832;2024-01-30T01:13:45;101234.50;;;1.74;100.00
9717;BME280;4897;43.570;27.832;2024-01-30T01:16:13;101227.53;;;1.70;100.00
9717;BME280;4897;43.570;27.832;2024-01-30T01:18:40;101114.31;;;1.08;100.00
9717;BME280;4897;43.570;27.832;2024-01-30T01:21:07;101243.31;;;1.73;100.00
9717;BME280;4897;43.570;27.832;2024-01-30T01:23:34;101203.06;;;1.62;100.00
9717;BME280;4897;43.570;27.832;2024-01-30T01:26:04;101221.41;;;1.68;100.00
9717;BME280;4897;43.570;27.832;2024-01-30T01:28:33;101198.75;;;1.55;100.00
9717;BME280;4897;43.570;27.832;2024-01-30T01:31:06;101204.00;;;1.58;100.00
9717;BME280;4897;43.570;27.832;2024-01-30T01:33:34;101183.13;;;1.46;100.00
9717;BME280;4897;43.570;27.832;2024-01-30T01:36:03;101227.38;;;1.81;100.00
9717;BME280;4897;43.570;27.832;2024-01-30T01:38:30;101231.78;;;1.79;100.00
9717;BME280;4897;43.570;27.832;2024-01-30T01:40:57;101228.41;;;1.69;100.00
9717;BME280;4897;43.570;27.832;2024-01-30T01:43:24;101233.63;;;1.75;100.00
9717;BME280;4897;43.570;27.832;2024-01-30T01:45:51;101209.31;;;1.55;100.00
9717;BME280;4897;43.570;27.832;2024-01-30T01:48:18;101213.50;;;1.68;100.00
9717;BME280;4897;43.570;27.832;2024-01-30T01:50:46;101223.50;;;1.46;100.00
9717;BME280;4897;43.570;27.832;2024-01-30T01:53:15;101197.28;;;1.39;100.00
9717;BME280;4897;43.570;27.832;2024-01-30T01:55:42;101208.63;;;1.44;100.00
9717;BME280;4897;43.570;27.832;2024-01-30T01:58:09;101205.09;;;1.45;100.00
9717;BME280;4897;43.570;27.832;2024-01-30T02:00:38;101114.66;;;0.83;100.00
9717;BME280;4897;43.570;27.832;2024-01-30T02:03:08;101135.44;;;1.03;100.00
9717;BME280;4897;43.570;27.832;2024-01-30T02:05:37;101168.81;;;1.04;100.00
9717;BME280;4897;43.570;27.832;2024-01-30T02:08:05;101192.38;;;1.15;100.00
9717;BME280;4897;43.570;27.832;2024-01-30T02:10:33;101181.09;;;1.04;100.00
9717;BME280;4897;43.570;27.832;2024-01-30T02:13:06;101167.97;;;1.01;100.00
9717;BME280;4897;43.570;27.832;2024-01-30T02:15:35;101134.78;;;0.89;100.00
9717;BME280;4897;43.570;27.832;2024-01-30T02:18:02;101144.31;;;0.96;100.00
9717;BME280;4897;43.570;27.832;2024-01-30T02:20:30;101186.94;;;1.24;100.00
9717;BME280;4897;43.570;27.832;2024-01-30T02:23:01;101193.97;;;1.23;100.00
9717;BME280;4897;43.570;27.832;2024-01-30T02:25:33;101204.66;;;1.14;100.00
9717;BME280;4897;43.570;27.832;2024-01-30T02:28:00;101047.75;;;0.36;100.00
9717;BME280;4897;43.570;27.832;2024-01-30T02:30:27;101179.09;;;1.21;100.00
9717;BME280;4897;43.570;27.832;2024-01-30T02:32:54;101194.66;;;1.36;100.00
9717;BME280;4897;43.570;27.832;2024-01-30T02:35:21;101214.94;;;1.32;100.00
9717;BME280;4897;43.570;27.832;2024-01-30T02:37:48;101186.22;;;1.13;100.00
9717;BME280;4897;43.570;27.832;2024-01-30T02:40:16;101185.25;;;1.20;100.00
9717;BME280;4897;43.570;27.832;2024-01-30T02:42:43;101184.38;;;1.21;100.00
9717;BME280;4897;43.570;27.832;2024-01-30T02:45:11;101180.84;;;1.22;100.00
9717;BME280;4897;43.570;27.832;2024-01-30T02:47:38;101204.22;;;1.43;100.00
9717;BME280;4897;43.570;27.832;2024-01-30T02:50:06;101119.00;;;0.88;100.00
9717;BME280;4897;43.570;27.832;2024-01-30T02:52:33;101206.19;;;1.30;100.00
9717;BME280;4897;43.570;27.832;2024-01-30T02:55:00;101200.00;;;1.33;100.00
9717;BME280;4897;43.570;27.832;2024-01-30T02:57:29;101213.13;;;1.36;100.00
9717;BME280;4897;43.570;27.832;2024-01-30T02:59:56;101202.44;;;1.45;100.00
9717;BME280;4897;43.570;27.832;2024-01-30T03:02:22;101150.97;;;1.21;100.00
9717;BME280;4897;43.570;27.832;2024-01-30T03:04:49;101218.97;;;1.56;100.00
9717;BME280;4897;43.570;27.832;2024-01-30T03:07:16;101175.38;;;1.34;100.00
9717;BME280;4897;43.570;27.832;2024-01-30T03:09:44;101199.81;;;1.45;100.00
9717;BME280;4897;43.570;27.832;2024-01-30T03:12:10;101217.13;;;1.61;100.00
9717;BME280;4897;43.570;27.832;2024-01-30T03:14:39;101209.34;;;1.53;100.00
9717;BME280;4897;43.570;27.832;2024-01-30T03:17:06;101209.19;;;1.64;100.00
9717;BME280;4897;43.570;27.832;2024-01-30T03:19:33;101229.22;;;1.74;100.00
9717;BME280;4897;43.570;27.832;2024-01-30T03:22:02;101199.75;;;1.49;100.00
9717;BME280;4897;43.570;27.832;2024-01-30T03:24:29;101225.97;;;1.57;100.00
9717;BME280;4897;43.570;27.832;2024-01-30T03:26:56;101218.31;;;1.40;100.00
9717;BME280;4897;43.570;27.832;2024-01-30T03:29:23;101221.81;;;1.42;100.00
9717;BME280;4897;43.570;27.832;2024-01-30T03:31:51;101178.16;;;1.25;100.00
9717;BME280;4897;43.570;27.832;2024-01-30T03:34:18;101217.28;;;1.50;100.00
9717;BME280;4897;43.570;27.832;2024-01-30T03:36:45;101221.09;;;1.33;100.00
9717;BME280;4897;43.570;27.832;2024-01-30T03:39:12;101225.50;;;1.31;100.00
9717;BME280;4897;43.570;27.832;2024-01-30T03:41:42;101223.72;;;1.33;100.00
9717;BME280;4897;43.570;27.832;2024-01-30T03:44:09;101219.44;;;1.24;100.00
9717;BME280;4897;43.570;27.832;2024-01-30T03:46:36;101217.50;;;1.37;100.00
9717;BME280;4897;43.570;27.832;2024-01-30T03:49:06;101179.31;;;1.06;100.00
9717;BME280;4897;43.570;27.832;2024-01-30T03:51:33;101210.75;;;1.18;100.00
9717;BME280;4897;43.570;27.832;2024-01-30T03:54:00;101231.81;;;1.19;100.00
9717;BME280;4897;43.570;27.832;2024-01-30T03:56:27;101211.72;;;1.11;100.00
9717;BME280;4897;43.570;27.832;2024-01-30T03:58:54;101215.94;;;1.24;100.00
9717;BME280;4897;43.570;27.832;2024-01-30T04:01:22;101238.47;;;1.44;100.00
9717;BME280;4897;43.570;27.832;2024-01-30T04:03:49;101234.03;;;1.48;100.00
9717;BME280;4897;43.570;27.832;2024-01-30T04:06:17;101219.47;;;1.21;100.00
9717;BME280;4897;43.570;27.832;2024-01-30T04:08:44;101206.31;;;1.23;100.00
9717;BME280;4897;43.570;27.832;2024-01-30T04:11:11;101215.81;;;1.33;100.00
9717;BME280;4897;43.570;27.832;2024-01-30T04:13:38;101236.63;;;1.51;100.00
9717;BME280;4897;43.570;27.832;2024-01-30T04:16:06;101006.66;;;0.27;100.00
9717;BME280;4897;43.570;27.832;2024-01-30T04:18:33;101197.22;;;1.40;100.00
9717;BME280;4897;43.570;27.832;2024-01-30T04:21:00;101187.84;;;1.21;100.00
9717;BME280;4897;43.570;27.832;2024-01-30T04:23:28;101072.13;;;0.51;100.00
9717;BME280;4897;43.570;27.832;2024-01-30T04:25:55;101220.91;;;1.45;100.00
9717;BME280;4897;43.570;27.832;2024-01-30T04:28:25;101217.44;;;1.40;100.00
9717;BME280;4897;43.570;27.832;2024-01-30T04:30:51;101233.09;;;1.52;100.00
9717;BME280;4897;43.570;27.832;2024-01-30T04:33:19;101232.22;;;1.51;100.00
9717;BME280;4897;43.570;27.832;2024-01-30T04:35:46;101227.13;;;1.41;100.00
9717;BME280;4897;43.570;27.832;2024-01-30T04:38:13;101219.31;;;1.32;100.00
9717;BME280;4897;43.570;27.832;2024-01-30T04:40:41;101222.03;;;1.27;100.00
9717;BME280;4897;43.570;27.832;2024-01-30T04:43:08;101215.63;;;1.45;100.00
9717;BME280;4897;43.570;27.832;2024-01-30T04:45:35;101237.44;;;1.54;100.00
9717;BME280;4897;43.570;27.832;2024-01-30T04:48:05;101170.34;;;1.19;100.00
9717;BME280;4897;43.570;27.832;2024-01-30T04:50:32;101232.25;;;1.48;100.00
9717;BME280;4897;43.570;27.832;2024-01-30T04:52:59;101174.16;;;1.00;100.00
9717;BME280;4897;43.570;27.832;2024-01-30T04:55:26;101225.38;;;1.38;100.00
9717;BME280;4897;43.570;27.832;2024-01-30T04:57:56;101179.19;;;1.15;100.00
9717;BME280;4897;43.570;27.832;2024-01-30T05:00:23;101180.81;;;1.25;100.00
9717;BME280;4897;43.570;27.832;2024-01-30T05:02:50;101221.09;;;1.33;100.00
9717;BME280;4897;43.570;27.832;2024-01-30T05:05:20;101227.13;;;1.38;100.00
9717;BME280;4897;43.570;27.832;2024-01-30T05:07:50;101219.31;;;1.35;100.00
9717;BME280;4897;43.570;27.832;2024-01-30T05:10:17;101254.47;;;1.32;100.00
9717;BME280;4897;43.570;27.832;2024-01-30T05:12:44;101186.28;;;1.10;100.00
9717;BME280;4897;43.570;27.832;2024-01-30T05:15:12;101236.09;;;1.26;100.00
9717;BME280;4897;43.570;27.832;2024-01-30T05:17:39;101065.53;;;0.20;100.00
9717;BME280;4897;43.570;27.832;2024-01-30T05:20:07;101221.38;;;1.12;100.00
9717;BME280;4897;43.570;27.832;2024-01-30T05:22:36;101240.50;;;1.26;100.00
9717;BME280;4897;43.570;27.832;2024-01-30T05:25:04;101230.03;;;1.23;100.00
9717;BME280;4897;43.570;27.832;2024-01-30T05:27:31;101252.56;;;1.43;100.00
9717;BME280;4897;43.570;27.832;2024-01-30T05:30:01;101247.06;;;1.57;100.00
9717;BME280;4897;43.570;27.832;2024-01-30T05:32:29;101258.56;;;1.53;100.00
9717;BME280;4897;43.570;27.832;2024-01-30T05:34:56;101224.66;;;1.29;100.00
9717;BME280;4897;43.570;27.832;2024-01-30T05:37:23;101234.34;;;1.25;100.00
9717;BME280;4897;43.570;27.832;2024-01-30T05:39:50;101261.38;;;1.41;100.00
9717;BME280;4897;43.570;27.832;2024-01-30T05:42:17;101257.84;;;1.42;100.00
9717;BME280;4897;43.570;27.832;2024-01-30T05:44:44;101229.78;;;1.38;100.00
9717;BME280;4897;43.570;27.832;2024-01-30T05:47:11;101221.97;;;1.33;100.00
9717;BME280;4897;43.570;27.832;2024-01-30T05:49:39;101224.69;;;1.26;100.00
9717;BME280;4897;43.570;27.832;2024-01-30T05:52:06;101248.38;;;1.29;100.00
9717;BME280;4897;43.570;27.832;2024-01-30T05:54:33;101254.22;;;1.49;100.00
9717;BME280;4897;43.570;27.832;2024-01-30T05:57:00;101231.84;;;1.18;100.00
9717;BME280;4897;43.570;27.832;2024-01-30T05:59:27;101247.06;;;1.57;100.00
9717;BME280;4897;43.570;27.832;2024-01-30T06:01:57;101252.44;;;1.51;100.00
9717;BME280;4897;43.570;27.832;2024-01-30T06:04:24;101150.44;;;0.98;100.00
9717;BME280;4897;43.570;27.832;2024-01-30T06:06:52;101257.72;;;1.51;100.00
9717;BME280;4897;43.570;27.832;2024-01-30T06:09:19;101243.75;;;1.46;100.00
9717;BME280;4897;43.570;27.832;2024-01-30T06:11:46;101234.69;;;1.62;100.00
9717;BME280;4897;43.570;27.832;2024-01-30T06:14:15;101256.41;;;1.78;100.00
9717;BME280;4897;43.570;27.832;2024-01-30T06:16:42;101156.16;;;1.29;100.00
9717;BME280;4897;43.570;27.832;2024-01-30T06:19:09;101261.84;;;1.67;100.00
9717;BME280;4897;43.570;27.832;2024-01-30T06:21:36;101262.78;;;1.63;100.00
9717;BME280;4897;43.570;27.832;2024-01-30T06:24:05;101291.78;;;1.66;100.00
9717;BME280;4897;43.570;27.832;2024-01-30T06:26:35;101257.63;;;1.58;100.00
9717;BME280;4897;43.570;27.832;2024-01-30T06:29:02;101267.16;;;1.66;100.00
9717;BME280;4897;43.570;27.832;2024-01-30T06:31:29;101099.41;;;0.44;100.00
9717;BME280;4897;43.570;27.832;2024-01-30T06:33:56;101267.31;;;1.55;100.00
9717;BME280;4897;43.570;27.832;2024-01-30T06:36:23;101291.03;;;1.55;100.00
9717;BME280;4897;43.570;27.832;2024-01-30T06:38:51;101277.09;;;1.47;100.00
9717;BME280;4897;43.570;27.832;2024-01-30T06:41:20;101288.38;;;1.56;100.00
9717;BME280;4897;43.570;27.832;2024-01-30T06:43:47;101292.78;;;1.57;100.00
9717;BME280;4897;43.570;27.832;2024-01-30T06:46:14;101276.94;;;1.57;100.00
9717;BME280;4897;43.570;27.832;2024-01-30T06:48:41;101295.28;;;1.65;100.00
9717;BME280;4897;43.570;27.832;2024-01-30T06:51:10;101296.97;;;1.69;100.00
9717;BME280;4897;43.570;27.832;2024-01-30T06:53:37;101301.38;;;1.70;100.00
9717;BME280;4897;43.570;27.832;2024-01-30T06:56:04;101297.69;;;1.80;100.00
9717;BME280;4897;43.570;27.832;2024-01-30T06:58:33;101284.56;;;1.76;100.00
9717;BME280;4897;43.570;27.832;2024-01-30T07:01:00;101290.63;;;1.82;100.00
9717;BME280;4897;43.570;27.832;2024-01-30T07:03:27;101238.38;;;1.50;100.00
9717;BME280;4897;43.570;27.832;2024-01-30T07:05:54;101302.75;;;1.95;100.00
9717;BME280;4897;43.570;27.832;2024-01-30T07:08:21;101300.16;;;1.91;100.00
9717;BME280;4897;43.570;27.832;2024-01-30T07:10:48;101304.22;;;2.11;100.00
9717;BME280;4897;43.570;27.832;2024-01-30T07:13:15;101296.94;;;2.25;100.00
9717;BME280;4897;43.570;27.832;2024-01-30T07:15:44;101302.88;;;2.38;100.00
9717;BME280;4897;43.570;27.832;2024-01-30T07:18:11;101306.56;;;2.31;100.00
9717;BME280;4897;43.570;27.832;2024-01-30T07:20:39;101306.56;;;2.31;100.00
9717;BME280;4897;43.570;27.832;2024-01-30T07:23:11;101300.44;;;2.27;100.00
9717;BME280;4897;43.570;27.832;2024-01-30T07:25:39;101301.84;;;2.47;100.00
9717;BME280;4897;43.570;27.832;2024-01-30T07:28:07;101305.34;;;2.49;100.00
9717;BME280;4897;43.570;27.832;2024-01-30T07:30:34;101313.91;;;2.63;100.00
9717;BME280;4897;43.570;27.832;2024-01-30T07:33:03;101303.44;;;2.57;100.00
9717;BME280;4897;43.570;27.832;2024-01-30T07:35:30;101305.06;;;2.64;100.00
9717;BME280;4897;43.570;27.832;2024-01-30T07:37:57;101137.88;;;1.70;100.00
9717;BME280;4897;43.570;27.832;2024-01-30T07:40:24;101304.88;;;2.74;100.00
9717;BME280;4897;43.570;27.832;2024-01-30T07:42:53;101291.63;;;2.76;100.00
9717;BME280;4897;43.570;27.832;2024-01-30T07:45:20;101300.94;;;2.95;100.00
9717;BME280;4897;43.570;27.832;2024-01-30T07:47:49;101307.06;;;2.97;100.00
9717;BME280;4897;43.570;27.832;2024-01-30T07:50:18;101300.19;;;2.90;100.00
9717;BME280;4897;43.570;27.832;2024-01-30T07:52:45;101282.78;;;2.78;100.00
9717;BME280;4897;43.570;27.832;2024-01-30T07:55:14;101321.06;;;3.02;100.00
9717;BME280;4897;43.570;27.832;2024-01-30T07:57:41;101317.63;;;2.97;100.00
9717;BME280;4897;43.570;27.832;2024-01-30T08:00:09;101305.66;;;2.79;100.00
9717;BME280;4897;43.570;27.832;2024-01-30T08:02:55;101293.03;;;2.49;100.00
9717;BME280;4897;43.570;27.832;2024-01-30T08:05:23;101305.16;;;2.61;100.00
9717;BME280;4897;43.570;27.832;2024-01-30T08:07:50;101309.34;;;2.71;100.00
9717;BME280;4897;43.570;27.832;2024-01-30T08:10:17;101304.00;;;2.75;100.00
9717;BME280;4897;43.570;27.832;2024-01-30T08:12:44;101329.13;;;2.96;100.00
9717;BME280;4897;43.570;27.832;2024-01-30T08:15:12;101316.13;;;2.85;100.00
9717;BME280;4897;43.570;27.832;2024-01-30T08:17:39;101320.13;;;2.60;100.00
9717;BME280;4897;43.570;27.832;2024-01-30T08:20:06;101313.78;;;2.67;100.00
9717;BME280;4897;43.570;27.832;2024-01-30T08:22:38;101303.34;;;2.63;100.00
9717;BME280;4897;43.570;27.832;2024-01-30T08:25:06;101309.09;;;2.83;100.00
9717;BME280;4897;43.570;27.832;2024-01-30T08:27:33;101259.41;;;2.59;100.00
9717;BME280;4897;43.570;27.832;2024-01-30T08:30:04;101276.97;;;2.60;100.00
9717;BME280;4897;43.570;27.832;2024-01-30T08:32:34;101301.03;;;2.92;100.00
9717;BME280;4897;43.570;27.832;2024-01-30T08:35:04;101276.19;;;2.99;100.00
9717;BME280;4897;43.570;27.832;2024-01-30T08:37:32;101283.88;;;3.52;100.00
9717;BME280;4897;43.570;27.832;2024-01-30T08:40:00;101282.94;;;3.91;100.00
9717;BME280;4897;43.570;27.832;2024-01-30T08:42:30;101275.44;;;4.42;100.00
9717;BME280;4897;43.570;27.832;2024-01-30T08:44:57;101290.19;;;4.19;100.00
9717;BME280;4897;43.570;27.832;2024-01-30T08:47:24;101283.44;;;4.41;100.00
9717;BME280;4897;43.570;27.832;2024-01-30T08:49:51;101292.03;;;4.82;100.00
9717;BME280;4897;43.570;27.832;2024-01-30T08:52:18;101292.59;;;5.24;100.00
9717;BME280;4897;43.570;27.832;2024-01-30T08:54:45;101289.22;;;5.19;100.00
9717;BME280;4897;43.570;27.832;2024-01-30T08:57:13;101308.47;;;4.95;100.00
9717;BME280;4897;43.570;27.832;2024-01-30T08:59:40;101265.31;;;4.58;100.00
9717;BME280;4897;43.570;27.832;2024-01-30T09:02:11;101312.25;;;4.53;100.00
9717;BME280;4897;43.570;27.832;2024-01-30T09:04:38;101298.94;;;4.22;100.00
9717;BME280;4897;43.570;27.832;2024-01-30T09:07:05;101315.09;;;4.12;100.00
9717;BME280;4897;43.570;27.832;2024-01-30T09:09:34;101307.81;;;4.21;100.00
9717;BME280;4897;43.570;27.832;2024-01-30T09:12:04;101088.81;;;2.88;100.00
9717;BME280;4897;43.570;27.832;2024-01-30T09:14:36;101319.66;;;4.40;100.00
9717;BME280;4897;43.570;27.832;2024-01-30T09:17:03;101312.38;;;4.13;100.00
9717;BME280;4897;43.570;27.832;2024-01-30T09:19:30;101314.50;;;3.99;100.00
9717;BME280;4897;43.570;27.832;2024-01-30T09:21:57;101317.41;;;4.24;100.00
9717;BME280;4897;43.570;27.832;2024-01-30T09:24:29;101308.75;;;4.52;100.00
9717;BME280;4897;43.570;27.832;2024-01-30T09:26:56;101305.16;;;4.87;100.00
9717;BME280;4897;43.570;27.832;2024-01-30T09:29:23;101294.97;;;4.72;100.00
9717;BME280;4897;43.570;27.832;2024-01-30T09:31:51;101297.84;;;4.95;100.00
9717;BME280;4897;43.570;27.832;2024-01-30T09:34:18;101294.66;;;5.15;100.00
9717;BME280;4897;43.570;27.832;2024-01-30T09:36:45;101273.31;;;5.18;100.00
9717;BME280;4897;43.570;27.832;2024-01-30T09:39:12;101286.31;;;5.56;100.00
9717;BME280;4897;43.570;27.832;2024-01-30T09:41:49;101279.00;;;6.70;100.00
9717;BME280;4897;43.570;27.832;2024-01-30T09:44:22;101263.81;;;7.21;100.00
9717;BME280;4897;43.570;27.832;2024-01-30T09:46:51;101284.13;;;6.99;100.00
9717;BME280;4897;43.570;27.832;2024-01-30T09:49:20;101257.66;;;5.96;100.00
9717;BME280;4897;43.570;27.832;2024-01-30T09:51:50;101287.31;;;6.35;100.00
9717;BME280;4897;43.570;27.832;2024-01-30T09:54:18;101268.78;;;5.80;100.00
9717;BME280;4897;43.570;27.832;2024-01-30T09:56:47;101283.94;;;6.04;100.00
9717;BME280;4897;43.570;27.832;2024-01-30T09:59:14;101283.59;;;5.88;100.00
9717;BME280;4897;43.570;27.832;2024-01-30T10:01:42;101251.88;;;5.54;100.00
9717;BME280;4897;43.570;27.832;2024-01-30T10:04:11;101256.28;;;6.11;100.00
9717;BME280;4897;43.570;27.832;2024-01-30T10:06:39;101286.56;;;6.31;100.00
9717;BME280;4897;43.570;27.832;2024-01-30T10:09:07;101284.03;;;5.73;100.00
9717;BME280;4897;43.570;27.832;2024-01-30T10:11:35;101294.44;;;5.51;100.00
9717;BME280;4897;43.570;27.832;2024-01-30T10:14:02;101289.41;;;5.12;100.00
9717;BME280;4897;43.570;27.832;2024-01-30T10:16:29;101310.91;;;5.03;100.00
9717;BME280;4897;43.570;27.832;2024-01-30T10:18:56;101280.09;;;4.66;100.00
9717;BME280;4897;43.570;27.832;2024-01-30T10:21:25;101283.31;;;5.39;100.00
9717;BME280;4897;43.570;27.832;2024-01-30T10:23:52;101263.00;;;5.67;100.00
9717;BME280;4897;43.570;27.832;2024-01-30T10:26:18;101226.31;;;5.52;100.00
9717;BME280;4897;43.570;27.832;2024-01-30T10:28:45;101213.72;;;5.58;100.00
9717;BME280;4897;43.570;27.832;2024-01-30T10:31:16;101252.72;;;5.83;100.00
9717;BME280;4897;43.570;27.832;2024-01-30T10:33:44;101266.44;;;5.41;100.00
9717;BME280;4897;43.570;27.832;2024-01-30T10:36:16;101238.75;;;5.78;100.00
9717;BME280;4897;43.570;27.832;2024-01-30T10:38:48;101215.75;;;5.50;100.00
9717;BME280;4897;43.570;27.832;2024-01-30T10:41:20;101252.16;;;5.45;100.00
9717;BME280;4897;43.570;27.832;2024-01-30T10:43:57;101246.78;;;5.19;100.00
9717;BME280;4897;43.570;27.832;2024-01-30T10:46:30;101255.75;;;5.44;100.00
9717;BME280;4897;43.570;27.832;2024-01-30T10:48:58;101243.63;;;5.07;100.00
9717;BME280;4897;43.570;27.832;2024-01-30T10:51:27;101247.50;;;5.24;100.00
9717;BME280;4897;43.570;27.832;2024-01-30T10:53:56;101255.00;;;5.39;100.00
9717;BME280;4897;43.570;27.832;2024-01-30T10:56:24;101243.38;;;5.14;100.00
9717;BME280;4897;43.570;27.832;2024-01-30T10:58:53;101240.00;;;5.09;100.00
9717;BME280;4897;43.570;27.832;2024-01-30T11:01:21;101249.75;;;5.38;100.00
9717;BME280;4897;43.570;27.832;2024-01-30T11:03:49;101258.03;;;5.27;100.00
9717;BME280;4897;43.570;27.832;2024-01-30T11:06:16;101251.84;;;5.27;100.00
9717;BME280;4897;43.570;27.832;2024-01-30T11:08:45;101251.53;;;5.37;100.00
9717;BME280;4897;43.570;27.832;2024-01-30T11:11:13;101234.88;;;5.03;100.00
9717;BME280;4897;43.570;27.832;2024-01-30T11:13:44;101245.59;;;5.29;100.00
9717;BME280;4897;43.570;27.832;2024-01-30T11:16:11;101213.03;;;5.24;100.00
9717;BME280;4897;43.570;27.832;2024-01-30T11:18:38;101234.31;;;5.50;100.00
9717;BME280;4897;43.570;27.832;2024-01-30T11:21:05;101234.31;;;5.50;100.00
9717;BME280;4897;43.570;27.832;2024-01-30T11:23:36;101210.63;;;5.44;100.00
9717;BME280;4897;43.570;27.832;2024-01-30T11:26:04;101233.31;;;5.54;100.00
9717;BME280;4897;43.570;27.832;2024-01-30T11:28:33;101244.19;;;5.45;100.00
9717;BME280;4897;43.570;27.832;2024-01-30T11:31:04;101219.78;;;5.05;100.00
9717;BME280;4897;43.570;27.832;2024-01-30T11:33:33;101211.69;;;5.10;100.00
9717;BME280;4897;43.570;27.832;2024-01-30T11:36:00;101230.50;;;5.31;100.00
9717;BME280;4897;43.570;27.832;2024-01-30T11:38:28;101234.03;;;5.32;100.00
9717;BME280;4897;43.570;27.832;2024-01-30T11:40:55;101234.59;;;5.12;100.00
9717;BME280;4897;43.570;27.832;2024-01-30T11:43:23;101204.06;;;4.99;100.00
9717;BME280;4897;43.570;27.832;2024-01-30T11:45:52;101227.38;;;4.88;100.00
9717;BME280;4897;43.570;27.832;2024-01-30T11:48:19;101186.94;;;4.80;100.00
9717;BME280;4897;43.570;27.832;2024-01-30T11:50:46;101176.72;;;4.97;100.00
9717;BME280;4897;43.570;27.832;2024-01-30T11:53:13;101199.47;;;5.33;100.00
9717;BME280;4897;43.570;27.832;2024-01-30T11:55:40;101204.19;;;6.07;100.00
9717;BME280;4897;43.570;27.832;2024-01-30T11:58:08;101214.56;;;5.88;100.00
9717;BME280;4897;43.570;27.832;2024-01-30T12:00:35;101193.50;;;5.54;100.00
9717;BME280;4897;43.570;27.832;2024-01-30T12:03:04;101204.88;;;5.30;100.00
9717;BME280;4897;43.570;27.832;2024-01-30T12:05:32;101199.56;;;5.30;100.00
9717;BME280;4897;43.570;27.832;2024-01-30T12:07:59;101192.94;;;5.17;100.00
9717;BME280;4897;43.570;27.832;2024-01-30T12:10:26;101205.06;;;5.24;100.00
9717;BME280;4897;43.570;27.832;2024-01-30T12:12:53;101166.88;;;5.02;100.00
9717;BME280;4897;43.570;27.832;2024-01-30T12:15:21;101179.22;;;7.73;100.00
9717;BME280;4897;43.570;27.832;2024-01-30T12:17:48;101165.78;;;9.34;100.00
9717;BME280;4897;43.570;27.832;2024-01-30T12:20:18;101181.19;;;8.71;100.00
9717;BME280;4897;43.570;27.832;2024-01-30T12:22:48;101183.25;;;7.40;100.00
9717;BME280;4897;43.570;27.832;2024-01-30T12:25:16;101175.88;;;6.78;100.00
9717;BME280;4897;43.570;27.832;2024-01-30T12:27:44;101205.06;;;6.32;100.00
9717;BME280;4897;43.570;27.832;2024-01-30T12:30:13;101195.47;;;5.76;100.00
9717;BME280;4897;43.570;27.832;2024-01-30T12:32:41;101202.63;;;5.74;100.00
9717;BME280;4897;43.570;27.832;2024-01-30T12:35:10;101190.38;;;5.68;100.00
9717;BME280;4897;43.570;27.832;2024-01-30T12:37:39;101182.00;;;5.54;100.00
9717;BME280;4897;43.570;27.832;2024-01-30T12:40:10;101188.41;;;5.48;100.00
9717;BME280;4897;43.570;27.832;2024-01-30T12:42:47;101185.59;;;5.25;100.00
9717;BME280;4897;43.570;27.832;2024-01-30T12:45:17;101184.66;;;5.26;100.00
9717;BME280;4897;43.570;27.832;2024-01-30T12:47:47;101188.25;;;5.25;100.00
9717;BME280;4897;43.570;27.832;2024-01-30T12:50:14;101174.13;;;5.25;100.00
9717;BME280;4897;43.570;27.832;2024-01-30T12:52:44;101162.53;;;5.27;100.00
9717;BME280;4897;43.570;27.832;2024-01-30T12:55:11;101115.69;;;4.71;100.00
9717;BME280;4897;43.570;27.832;2024-01-30T12:57:38;101188.13;;;5.28;100.00
9717;BME280;4897;43.570;27.832;2024-01-30T13:00:06;101187.44;;;5.23;100.00
9717;BME280;4897;43.570;27.832;2024-01-30T13:02:34;101184.16;;;5.14;100.00
9717;BME280;4897;43.570;27.832;2024-01-30T13:05:03;101186.50;;;4.95;100.00